Time;durP1;ratioP1;P1;durP2;ratioP2;P2;SDS_P1;SDS_P2;PMS_P1;PMS_P2;Temp;Humidity;BMP_temperature;BMP_pressure;BME280_temperature;BME280_humidity;BME280_pressure;Samples;Min_cycle;Max_cycle;Signal;HPM_P1;HPM_P2
2022/05/12 00:00:06;;;;;;;4.97;4.60;;;20.60;99.90;;;;;;5049191;28;20212;-79
2022/05/12 00:02:33;;;;;;;5.15;4.70;;;20.60;99.90;;;;;;5048095;28;20197;-79
2022/05/12 00:05:00;;;;;;;5.03;4.50;;;20.60;99.90;;;;;;5049616;28;20204;-79
2022/05/12 00:07:27;;;;;;;5.47;5.07;;;20.70;99.90;;;;;;5049634;28;20235;-79
2022/05/12 00:09:53;;;;;;;5.10;4.60;;;20.60;99.90;;;;;;5048567;28;20231;-80
2022/05/12 00:12:20;;;;;;;5.17;4.67;;;20.70;99.90;;;;;;5049129;28;20702;-74
2022/05/12 00:14:47;;;;;;;5.00;4.60;;;20.70;99.90;;;;;;5049094;28;20266;-74
2022/05/12 00:17:15;;;;;;;4.87;4.30;;;20.70;99.90;;;;;;5036942;28;20243;-74
2022/05/12 00:19:41;;;;;;;6.27;4.57;;;20.70;99.90;;;;;;5029055;28;20219;-74
2022/05/12 00:22:08;;;;;;;5.45;5.03;;;20.70;99.90;;;;;;5028689;28;20827;-74
2022/05/12 00:24:35;;;;;;;5.32;4.63;;;20.80;99.90;;;;;;5048019;28;20293;-74
2022/05/12 00:27:01;;;;;;;6.63;4.90;;;20.80;99.90;;;;;;5048551;28;20238;-74
2022/05/12 00:29:28;;;;;;;5.17;4.67;;;20.80;99.90;;;;;;5048832;28;20212;-74
2022/05/12 00:31:55;;;;;;;4.60;4.22;;;20.70;99.90;;;;;;5041790;28;20261;-73
2022/05/12 00:34:23;;;;;;;4.50;4.18;;;20.70;99.90;;;;;;5046107;28;20283;-74
2022/05/12 00:36:50;;;;;;;4.70;4.30;;;20.70;99.90;;;;;;5048517;28;20209;-74
2022/05/12 00:39:16;;;;;;;4.73;4.20;;;20.70;99.90;;;;;;5048427;28;20218;-74
2022/05/12 00:41:44;;;;;;;5.25;4.60;;;20.80;99.90;;;;;;5048320;28;20211;-75
2022/05/12 00:44:12;;;;;;;7.70;5.40;;;20.70;99.90;;;;;;5040770;28;20212;-75
2022/05/12 00:46:42;;;;;;;5.30;4.73;;;20.60;99.90;;;;;;5028314;28;20282;-75
2022/05/12 00:49:13;;;;;;;5.17;4.83;;;20.70;99.90;;;;;;5028474;28;20205;-74
2022/05/12 00:51:46;;;;;;;5.63;5.00;;;20.60;99.90;;;;;;5028161;28;20670;-75
2022/05/12 00:54:18;;;;;;;5.70;5.10;;;20.60;99.90;;;;;;5027841;28;20699;-73
2022/05/12 00:56:45;;;;;;;6.17;5.10;;;20.60;99.90;;;;;;5028547;28;20263;-73
2022/05/12 00:59:20;;;;;;;5.30;5.00;;;20.60;99.90;;;;;;5034795;28;20208;-72
2022/05/12 01:01:47;;;;;;;6.30;5.80;;;20.60;99.90;;;;;;5035587;28;20200;-72
2022/05/12 01:04:14;;;;;;;5.67;5.27;;;20.50;99.90;;;;;;5027734;28;20663;-72
2022/05/12 01:06:42;;;;;;;5.38;4.90;;;20.50;99.90;;;;;;5028144;28;20602;-72
2022/05/12 01:09:09;;;;;;;5.40;5.00;;;20.30;99.90;;;;;;5027838;28;20209;-72
2022/05/12 01:11:36;;;;;;;4.83;4.50;;;20.30;99.90;;;;;;5027627;28;20246;-72
2022/05/12 01:14:06;;;;;;;4.50;4.20;;;20.00;99.90;;;;;;5043590;28;20212;-72
2022/05/12 01:16:36;;;;;;;5.83;4.67;;;19.80;99.90;;;;;;5048020;28;20199;-72
2022/05/12 01:19:03;;;;;;;4.80;4.50;;;19.50;99.90;;;;;;5047035;28;20235;-72
2022/05/12 01:21:30;;;;;;;5.53;5.00;;;19.20;99.90;;;;;;5047590;28;20208;-72
2022/05/12 01:24:00;;;;;;;5.17;4.77;;;19.20;99.90;;;;;;5047380;28;20249;-72
2022/05/12 01:26:27;;;;;;;5.33;4.93;;;19.30;99.90;;;;;;5046896;28;20209;-72
2022/05/12 01:28:54;;;;;;;6.10;5.00;;;19.10;99.90;;;;;;5031872;28;20278;-72
2022/05/12 01:31:22;;;;;;;5.07;4.67;;;18.80;99.90;;;;;;5038409;28;20335;-72
2022/05/12 01:33:51;;;;;;;5.23;4.83;;;18.70;99.90;;;;;;5042875;28;20215;-72
2022/05/12 01:36:18;;;;;;;5.23;4.77;;;18.60;99.90;;;;;;5047438;28;20243;-72
2022/05/12 01:38:45;;;;;;;7.13;4.53;;;18.60;99.90;;;;;;5047532;28;20214;-72
2022/05/12 01:41:13;;;;;;;5.33;5.00;;;18.60;99.90;;;;;;5043138;28;20651;-72
2022/05/12 01:43:39;;;;;;;5.30;4.90;;;18.40;99.90;;;;;;5046593;28;20207;-72
2022/05/12 01:46:06;;;;;;;5.77;5.17;;;18.30;99.90;;;;;;5047641;28;20235;-72
2022/05/12 01:48:33;;;;;;;5.00;4.60;;;18.30;99.90;;;;;;5047596;28;20234;-71
2022/05/12 01:51:00;;;;;;;5.10;4.70;;;18.40;99.90;;;;;;5047301;28;20258;-72
2022/05/12 01:53:27;;;;;;;4.10;3.87;;;18.10;99.90;;;;;;5047236;28;20215;-71
2022/05/12 01:55:54;;;;;;;5.20;4.10;;;18.20;99.90;;;;;;5046920;28;20204;-71
2022/05/12 01:58:22;;;;;;;6.27;4.37;;;18.30;99.90;;;;;;5047346;28;20243;-71
2022/05/12 02:00:49;;;;;;;5.43;4.10;;;18.30;99.90;;;;;;5047377;28;20200;-72
2022/05/12 02:03:16;;;;;;;4.13;3.83;;;18.30;99.90;;;;;;5047469;28;20208;-71
2022/05/12 02:05:43;;;;;;;4.90;3.67;;;18.30;99.90;;;;;;5047088;28;20686;-71
2022/05/12 02:08:12;;;;;;;4.47;3.83;;;18.10;99.90;;;;;;5046669;28;20782;-75
2022/05/12 02:10:41;;;;;;;6.07;3.97;;;17.90;99.90;;;;;;5036402;28;20233;-75
2022/05/12 02:13:09;;;;;;;5.03;3.63;;;17.70;99.90;;;;;;5027612;28;20208;-75
2022/05/12 02:15:38;;;;;;;4.80;4.40;;;17.70;99.90;;;;;;5046792;28;20605;-75
2022/05/12 02:18:06;;;;;;;4.77;3.70;;;17.60;99.90;;;;;;5027108;28;20244;-73
2022/05/12 02:20:33;;;;;;;7.37;4.73;;;17.40;99.90;;;;;;5047134;28;20208;-74
2022/05/12 02:23:00;;;;;;;4.80;4.00;;;17.50;99.90;;;;;;5027713;28;20988;-74
2022/05/12 02:25:26;;;;;;;4.40;4.00;;;17.30;99.90;;;;;;5033774;28;20208;-76
2022/05/12 02:27:55;;;;;;;6.37;5.03;;;17.20;99.90;;;;;;5045782;28;20633;-76
2022/05/12 02:30:25;;;;;;;6.60;4.87;;;16.90;99.90;;;;;;5026890;28;20258;-75
2022/05/12 02:32:53;;;;;;;7.17;4.23;;;16.70;99.90;;;;;;5041932;28;20647;-75
2022/05/12 02:35:20;;;;;;;6.70;4.77;;;16.60;99.90;;;;;;5045103;28;20208;-76
2022/05/12 02:37:47;;;;;;;6.67;4.40;;;16.70;99.90;;;;;;5043764;28;20208;-75
2022/05/12 02:40:17;;;;;;;4.80;4.40;;;16.60;99.90;;;;;;5044638;28;20208;-76
2022/05/12 02:42:44;;;;;;;5.57;5.03;;;16.70;99.90;;;;;;5044912;28;20209;-74
2022/05/12 02:45:11;;;;;;;6.80;4.93;;;16.50;99.90;;;;;;5044251;28;20216;-74
2022/05/12 02:47:37;;;;;;;6.03;4.63;;;16.40;99.90;;;;;;5045018;28;20254;-74
2022/05/12 02:50:07;;;;;;;5.60;4.63;;;16.20;99.90;;;;;;5030411;28;20630;-75
2022/05/12 02:52:34;;;;;;;7.37;4.73;;;16.20;99.90;;;;;;5024872;28;20625;-76
2022/05/12 02:55:01;;;;;;;6.27;4.50;;;16.20;99.90;;;;;;5024627;28;20197;-74
2022/05/12 02:57:28;;;;;;;5.57;5.00;;;16.20;99.90;;;;;;5027777;28;20212;-76
2022/05/12 02:59:55;;;;;;;5.33;4.83;;;16.30;99.90;;;;;;5039446;28;20219;-76
2022/05/12 03:02:21;;;;;;;5.73;4.83;;;16.30;99.90;;;;;;5031588;28;20205;-75
2022/05/12 03:04:48;;;;;;;7.60;4.87;;;16.10;99.90;;;;;;5030921;28;20205;-76
2022/05/12 03:07:17;;;;;;;6.07;5.03;;;16.10;99.90;;;;;;5046920;28;20204;-76
2022/05/12 03:09:44;;;;;;;6.43;5.07;;;16.20;99.90;;;;;;5049379;28;20220;-76
2022/05/12 03:12:11;;;;;;;5.20;4.70;;;16.30;99.90;;;;;;5049657;28;20208;-76
2022/05/12 03:14:37;;;;;;;5.73;5.20;;;16.20;99.90;;;;;;5049951;28;20215;-76
2022/05/12 03:17:04;;;;;;;4.97;4.50;;;16.30;99.90;;;;;;5049789;28;20204;-76
2022/05/12 03:19:31;;;;;;;5.90;5.27;;;16.20;99.90;;;;;;5049578;28;20264;-76
2022/05/12 03:21:58;;;;;;;6.53;5.17;;;16.00;99.90;;;;;;5049690;28;20295;-76
2022/05/12 03:24:26;;;;;;;8.87;5.17;;;16.00;99.90;;;;;;5049768;28;20208;-75
2022/05/12 03:26:53;;;;;;;5.90;4.87;;;15.90;99.90;;;;;;5049756;28;20216;-76
2022/05/12 03:29:20;;;;;;;8.53;5.10;;;15.80;99.90;;;;;;5050020;28;20242;-76
2022/05/12 03:31:49;;;;;;;7.33;5.23;;;15.90;99.90;;;;;;5049964;28;20586;-76
2022/05/12 03:34:16;;;;;;;6.20;5.70;;;15.90;99.90;;;;;;5041340;28;20201;-75
2022/05/12 03:36:43;;;;;;;7.87;5.23;;;15.80;99.90;;;;;;5030035;28;20262;-76
2022/05/12 03:39:09;;;;;;;9.57;5.53;;;15.80;99.90;;;;;;5029045;28;20976;-76
2022/05/12 03:41:37;;;;;;;5.20;4.70;;;15.70;99.90;;;;;;5033346;28;20828;-76
2022/05/12 03:46:48;;;;;;;6.93;5.10;;;15.70;99.90;;;;;;5049154;28;20196;-75
2022/05/12 03:49:15;;;;;;;8.00;5.73;;;15.80;99.90;;;;;;5049486;28;20637;-76
2022/05/12 03:51:42;;;;;;;6.33;4.63;;;15.90;99.90;;;;;;5049036;28;20216;-76
2022/05/12 03:54:08;;;;;;;6.57;4.90;;;15.80;99.90;;;;;;5048938;28;20277;-75
2022/05/12 03:56:37;;;;;;;5.93;4.70;;;15.70;99.90;;;;;;5049554;28;20211;-76
2022/05/12 03:59:05;;;;;;;6.33;5.40;;;15.70;99.90;;;;;;5048837;28;20696;-76
2022/05/12 04:01:32;;;;;;;5.10;4.67;;;15.70;99.90;;;;;;5043011;28;20258;-76
2022/05/12 04:03:59;;;;;;;6.33;5.53;;;15.60;99.90;;;;;;5028542;28;20216;-76
2022/05/12 04:06:26;;;;;;;6.50;4.50;;;15.50;99.90;;;;;;5028698;28;20215;-75
2022/05/12 04:08:52;;;;;;;4.70;4.30;;;15.50;99.90;;;;;;5034031;28;20244;-76
2022/05/12 04:11:19;;;;;;;7.27;5.00;;;15.50;99.90;;;;;;5048778;28;20410;-76
2022/05/12 04:13:47;;;;;;;5.20;4.27;;;15.40;99.90;;;;;;5048996;28;20208;-76
2022/05/12 04:16:15;;;;;;;5.30;4.30;;;15.50;99.90;;;;;;5048409;28;20204;-76
2022/05/12 04:18:42;;;;;;;6.27;4.77;;;15.70;99.90;;;;;;5035266;28;20295;-75
2022/05/12 04:21:08;;;;;;;7.40;4.07;;;15.50;99.90;;;;;;5028138;28;20683;-76
2022/05/12 04:23:35;;;;;;;5.57;4.20;;;15.50;99.90;;;;;;5028506;28;20624;-76
2022/05/12 04:26:02;;;;;;;6.40;3.63;;;15.50;99.90;;;;;;5028490;28;20651;-76
2022/05/12 04:28:29;;;;;;;5.77;4.23;;;15.60;99.90;;;;;;5028287;28;20295;-76
2022/05/12 04:30:58;;;;;;;4.30;3.70;;;15.50;99.90;;;;;;5040564;28;20287;-76
2022/05/12 04:36:09;;;;;;;5.10;4.10;;;15.40;99.90;;;;;;5048118;28;20277;-75
2022/05/12 04:38:35;;;;;;;4.70;3.47;;;15.30;99.90;;;;;;5047807;28;20208;-75
2022/05/12 04:41:04;;;;;;;5.07;3.43;;;15.30;99.90;;;;;;5048271;28;20212;-75
2022/05/12 04:43:31;;;;;;;4.63;3.20;;;15.40;99.90;;;;;;5030923;28;20526;-76
2022/05/12 04:45:59;;;;;;;5.07;3.63;;;15.40;99.90;;;;;;5048307;28;20208;-76
2022/05/12 04:48:29;;;;;;;6.73;3.03;;;15.40;99.90;;;;;;5048094;28;20236;-76
2022/05/12 04:50:56;;;;;;;4.47;3.20;;;15.30;99.90;;;;;;5047969;28;20196;-76
2022/05/12 04:53:24;;;;;;;5.67;3.40;;;15.30;99.90;;;;;;5047881;28;20208;-76
2022/05/12 04:55:50;;;;;;;6.00;3.20;;;15.40;99.90;;;;;;5047918;28;20251;-76
2022/05/12 04:58:17;;;;;;;4.83;3.03;;;15.40;99.90;;;;;;5037986;28;20205;-76
2022/05/12 05:00:44;;;;;;;3.43;3.13;;;15.40;99.90;;;;;;5047988;28;20209;-75
2022/05/12 05:03:13;;;;;;;4.10;2.90;;;15.40;99.90;;;;;;5047525;28;20739;-76
2022/05/12 05:05:39;;;;;;;3.37;3.07;;;15.40;99.90;;;;;;5043417;28;20212;-76
2022/05/12 05:08:07;;;;;;;6.00;3.10;;;15.40;99.90;;;;;;5047411;28;20294;-76
2022/05/12 05:10:34;;;;;;;5.73;3.07;;;15.40;99.90;;;;;;5047856;28;20239;-76
2022/05/12 05:13:01;;;;;;;3.60;2.63;;;15.30;99.90;;;;;;5047753;28;20215;-76
2022/05/12 05:15:28;;;;;;;4.30;2.67;;;15.40;99.90;;;;;;5029475;28;20237;-76
2022/05/12 05:17:55;;;;;;;3.27;2.57;;;15.40;99.90;;;;;;5027636;28;20232;-76
2022/05/12 05:20:25;;;;;;;3.07;2.60;;;15.40;99.90;;;;;;5027402;28;20208;-76
2022/05/12 05:22:52;;;;;;;4.33;2.00;;;15.40;99.90;;;;;;5027455;28;20197;-76
2022/05/12 05:25:18;;;;;;;5.60;2.30;;;15.30;99.90;;;;;;5027668;28;20259;-76
2022/05/12 05:27:46;;;;;;;2.03;1.43;;;15.40;99.90;;;;;;5027961;28;20367;-76
2022/05/12 05:30:17;;;;;;;5.47;1.73;;;15.40;99.90;;;;;;5027819;28;20232;-76
2022/05/12 05:32:43;;;;;;;4.47;1.70;;;15.30;99.90;;;;;;5027428;28;20702;-76
2022/05/12 05:35:12;;;;;;;7.00;1.97;;;15.30;99.90;;;;;;5027919;28;20212;-75
2022/05/12 05:37:40;;;;;;;3.30;1.47;;;15.30;99.90;;;;;;5027566;28;20212;-75
2022/05/12 05:40:08;;;;;;;2.30;1.50;;;15.20;99.90;;;;;;5027353;28;20208;-76
2022/05/12 05:42:35;;;;;;;1.40;1.30;;;15.20;99.90;;;;;;5040529;28;20216;-76
2022/05/12 05:45:08;;;;;;;3.53;2.13;;;15.20;99.90;;;;;;5047177;28;20610;-76
2022/05/12 05:47:35;;;;;;;1.67;1.47;;;15.30;99.90;;;;;;5047208;28;20714;-76
2022/05/12 05:50:02;;;;;;;4.50;1.70;;;15.20;99.90;;;;;;5046972;28;20232;-76
2022/05/12 05:55:14;;;;;;;1.20;1.10;;;15.20;99.90;;;;;;5031131;28;20227;-76
2022/05/12 05:57:43;;;;;;;2.50;1.10;;;15.20;99.90;;;;;;5027366;28;20219;-76
2022/05/12 06:00:12;;;;;;;2.03;1.40;;;15.30;99.90;;;;;;5027517;28;20221;-76
2022/05/12 06:02:39;;;;;;;3.93;1.53;;;15.20;99.90;;;;;;5043277;28;20713;-76
2022/05/12 06:05:06;;;;;;;1.57;1.23;;;15.20;99.90;;;;;;5047419;28;20212;-76
2022/05/12 06:07:35;;;;;;;1.33;1.23;;;15.30;99.90;;;;;;5047133;28;20214;-76
2022/05/12 06:10:02;;;;;;;3.80;1.40;;;15.30;99.90;;;;;;5046835;28;20270;-76
2022/05/12 06:12:30;;;;;;;1.73;1.57;;;15.20;99.90;;;;;;5047307;28;20192;-76
2022/05/12 06:14:58;;;;;;;1.03;0.97;;;15.20;99.90;;;;;;5047364;28;20204;-76
2022/05/12 06:17:24;;;;;;;2.10;1.20;;;15.30;99.90;;;;;;5047305;28;20208;-76
2022/05/12 06:19:51;;;;;;;2.20;1.40;;;15.40;99.90;;;;;;5047298;28;20563;-76
2022/05/12 06:22:19;;;;;;;3.13;1.10;;;15.40;99.90;;;;;;5044300;28;20213;-77
2022/05/12 06:24:47;;;;;;;4.57;1.30;;;15.30;99.90;;;;;;5026894;28;20733;-77
2022/05/12 06:27:14;;;;;;;2.30;1.23;;;15.20;99.90;;;;;;5027175;28;20259;-77
2022/05/12 06:29:44;;;;;;;2.10;0.90;;;15.20;99.90;;;;;;5026960;28;20335;-77
2022/05/12 06:32:11;;;;;;;1.30;1.20;;;15.30;99.90;;;;;;5031098;28;20219;-77
2022/05/12 06:34:41;;;;;;;1.57;0.90;;;15.30;99.90;;;;;;5030972;28;20205;-77
2022/05/12 06:37:08;;;;;;;2.37;1.10;;;15.20;99.90;;;;;;5030691;28;20774;-77
2022/05/12 06:39:35;;;;;;;3.60;1.33;;;15.10;99.90;;;;;;5030235;28;20729;-77
2022/05/12 06:42:02;;;;;;;4.30;1.00;;;15.10;99.90;;;;;;5039119;28;20231;-77
2022/05/12 06:44:30;;;;;;;1.07;0.93;;;15.20;99.90;;;;;;5050340;28;20666;-77
2022/05/12 06:46:58;;;;;;;3.30;0.97;;;15.30;99.90;;;;;;5050409;28;20200;-77
2022/05/12 06:49:24;;;;;;;1.10;0.97;;;15.20;99.90;;;;;;5050151;28;20742;-77
2022/05/12 06:51:52;;;;;;;1.60;0.87;;;15.20;99.90;;;;;;5040082;28;20282;-77
2022/05/12 06:54:19;;;;;;;2.10;0.90;;;15.30;99.90;;;;;;5030528;28;20209;-77
2022/05/12 06:56:45;;;;;;;1.50;1.00;;;15.20;99.90;;;;;;5030296;28;20618;-77
2022/05/12 06:59:12;;;;;;;1.07;0.83;;;15.20;99.90;;;;;;5048957;28;20212;-77
2022/05/12 07:01:38;;;;;;;1.60;1.17;;;15.20;99.90;;;;;;5050151;28;20246;-77
2022/05/12 07:04:06;;;;;;;1.50;0.80;;;15.20;99.90;;;;;;5049764;28;20615;-77
2022/05/12 07:06:33;;;;;;;1.47;1.00;;;15.10;99.90;;;;;;5044638;28;20270;-77
2022/05/12 07:09:00;;;;;;;1.20;0.77;;;15.30;99.90;;;;;;5029840;28;20240;-77
2022/05/12 07:11:26;;;;;;;2.03;1.00;;;15.50;99.90;;;;;;5030000;28;20279;-77
2022/05/12 07:13:53;;;;;;;2.70;0.97;;;15.60;99.90;;;;;;5034814;28;20208;-77
2022/05/12 07:16:20;;;;;;;1.67;0.70;;;15.60;99.90;;;;;;5049908;28;20265;-75
2022/05/12 07:18:48;;;;;;;0.83;0.83;;;15.50;99.90;;;;;;5045108;28;20240;-75
2022/05/12 07:26:45;;;;;;;1.50;0.60;;;15.30;99.90;;;;;;5029704;28;20319;-75
2022/05/12 07:29:15;;;;;;;1.33;0.80;;;15.30;99.90;;;;;;5029599;28;20319;-75
2022/05/12 07:31:43;;;;;;;1.07;0.67;;;15.30;99.90;;;;;;5029741;28;20209;-75
2022/05/12 07:34:10;;;;;;;4.13;0.87;;;15.40;99.90;;;;;;5030034;28;20208;-76
2022/05/12 07:36:42;;;;;;;1.03;0.70;;;15.70;99.90;;;;;;5029900;28;20209;-76
2022/05/12 07:39:09;;;;;;;4.17;0.70;;;15.80;99.90;;;;;;5029275;28;20210;-76
2022/05/12 07:41:38;;;;;;;2.10;0.60;;;15.70;99.90;;;;;;5033324;28;20254;-76
2022/05/12 07:44:05;;;;;;;2.33;0.63;;;15.70;99.90;;;;;;5049920;28;20317;-75
2022/05/12 07:46:32;;;;;;;1.57;0.67;;;15.50;99.90;;;;;;5043771;28;20205;-76
2022/05/12 07:48:59;;;;;;;0.93;0.60;;;15.50;99.90;;;;;;5029630;28;20232;-75
2022/05/12 07:51:26;;;;;;;1.20;1.10;;;15.40;99.90;;;;;;5029643;28;20208;-76
2022/05/12 07:53:54;;;;;;;2.40;1.07;;;15.40;99.90;;;;;;5035095;28;20196;-75
2022/05/12 07:56:23;;;;;;;1.00;0.60;;;15.40;99.90;;;;;;5049667;28;20204;-76
2022/05/12 07:58:50;;;;;;;0.73;0.70;;;15.60;99.90;;;;;;5049712;28;20200;-76
2022/05/12 08:01:18;;;;;;;1.07;0.80;;;15.70;99.90;;;;;;5040518;28;20200;-76
2022/05/12 08:03:45;;;;;;;1.47;0.60;;;15.70;99.90;;;;;;5042198;28;20258;-75
2022/05/12 08:06:13;;;;;;;1.90;0.90;;;15.90;99.90;;;;;;5049177;28;20243;-75
2022/05/12 08:08:41;;;;;;;3.53;0.90;;;16.00;99.90;;;;;;5049054;28;20210;-75
2022/05/12 08:11:10;;;;;;;3.87;0.93;;;15.90;99.90;;;;;;5048941;28;20228;-76
2022/05/12 08:13:37;;;;;;;0.63;0.47;;;16.00;99.90;;;;;;5049190;28;20208;-75
2022/05/12 08:16:07;;;;;;;0.87;0.87;;;15.90;99.90;;;;;;5048617;28;20248;-76
2022/05/12 08:18:35;;;;;;;1.10;0.80;;;16.00;99.90;;;;;;5048478;28;20235;-75
2022/05/12 08:21:05;;;;;;;0.63;0.57;;;16.10;99.90;;;;;;5048807;28;20231;-75
2022/05/12 08:23:32;;;;;;;1.60;0.93;;;15.90;99.90;;;;;;5048562;28;20239;-76
2022/05/12 08:25:58;;;;;;;2.23;0.90;;;15.90;99.90;;;;;;5048287;28;20208;-76
2022/05/12 08:28:27;;;;;;;2.33;0.60;;;15.90;99.90;;;;;;5048353;28;20732;-76
2022/05/12 08:30:55;;;;;;;1.67;1.00;;;16.10;99.90;;;;;;5048477;28;20266;-75
2022/05/12 08:33:23;;;;;;;3.30;0.80;;;16.10;99.90;;;;;;5048856;28;20208;-76
2022/05/12 08:35:50;;;;;;;3.27;1.10;;;16.10;99.90;;;;;;5048872;28;20208;-76
2022/05/12 08:38:18;;;;;;;3.80;1.20;;;16.20;99.90;;;;;;5048157;28;20238;-76
2022/05/12 08:40:53;;;;;;;1.57;1.00;;;16.50;99.90;;;;;;5047942;28;20662;-76
2022/05/12 08:43:29;;;;;;;1.07;0.70;;;16.70;99.90;;;;;;5038112;28;20666;-75
2022/05/12 08:46:04;;;;;;;1.90;1.10;;;16.60;99.90;;;;;;5048346;28;20195;-75
2022/05/12 08:48:31;;;;;;;1.50;1.10;;;16.20;99.90;;;;;;5048463;28;20269;-75
2022/05/12 08:50:58;;;;;;;2.07;0.90;;;16.10;99.90;;;;;;5035469;28;20240;-76
2022/05/12 08:53:30;;;;;;;1.17;0.70;;;16.30;99.90;;;;;;5027716;28;20209;-76
2022/05/12 08:55:59;;;;;;;0.80;0.77;;;16.30;99.90;;;;;;5027875;28;20216;-76
2022/05/12 08:58:33;;;;;;;1.90;1.00;;;16.40;99.90;;;;;;5029020;28;20208;-76
2022/05/12 09:01:05;;;;;;;1.73;1.10;;;16.60;99.90;;;;;;5042044;28;20196;-76
2022/05/12 09:03:52;;;;;;;0.80;0.70;;;16.80;99.90;;;;;;5039379;28;20346;-76
2022/05/12 09:06:22;;;;;;;2.23;0.83;;;16.80;99.90;;;;;;5048350;28;20196;-76
2022/05/12 09:08:54;;;;;;;2.87;0.90;;;16.80;99.90;;;;;;5047447;28;20203;-76
2022/05/12 09:11:27;;;;;;;3.10;0.93;;;16.80;99.90;;;;;;5048266;28;20235;-75
2022/05/12 09:13:55;;;;;;;1.27;0.80;;;16.80;99.90;;;;;;5047852;28;20665;-76
2022/05/12 09:16:25;;;;;;;2.60;1.03;;;16.70;99.90;;;;;;5047787;28;20224;-76
2022/05/12 09:18:53;;;;;;;1.33;1.13;;;16.70;99.90;;;;;;5047448;28;20236;-76
2022/05/12 09:21:24;;;;;;;3.00;1.00;;;16.70;99.90;;;;;;5047745;28;20215;-76
2022/05/12 09:23:51;;;;;;;0.83;0.60;;;16.90;99.90;;;;;;5033753;28;20667;-76
2022/05/12 09:26:37;;;;;;;1.13;0.83;;;17.10;99.90;;;;;;5027542;28;20706;-76
2022/05/12 09:29:18;;;;;;;2.20;1.00;;;17.00;99.90;;;;;;5027447;28;20220;-76
2022/05/12 09:31:48;;;;;;;1.73;0.90;;;17.20;99.90;;;;;;5027570;28;20201;-75
2022/05/12 09:34:32;;;;;;;1.37;1.13;;;17.40;99.90;;;;;;5027568;28;20216;-76
2022/05/12 09:37:16;;;;;;;1.67;0.90;;;17.30;99.90;;;;;;5025470;28;20671;-76
2022/05/12 09:39:44;;;;;;;0.97;0.90;;;17.20;99.90;;;;;;5038921;28;20200;-75
2022/05/12 09:42:26;;;;;;;1.27;0.80;;;17.10;99.90;;;;;;5046732;28;20547;-76
2022/05/12 09:44:57;;;;;;;1.27;0.90;;;17.10;99.90;;;;;;5033779;28;20212;-76
2022/05/12 09:47:24;;;;;;;1.13;0.73;;;17.30;99.90;;;;;;5027302;28;20205;-76
2022/05/12 09:50:15;;;;;;;0.83;0.83;;;17.50;99.90;;;;;;5027171;28;20233;-76
2022/05/12 09:52:39;;;;;;;1.10;1.00;;;17.70;99.90;;;;;;5026911;28;20835;-76
2022/05/12 09:55:17;;;;;;;2.00;0.73;;;17.50;99.90;;;;;;5027016;28;20205;-77
2022/05/12 09:57:53;;;;;;;2.00;1.10;;;17.30;99.90;;;;;;5027347;28;20201;-76
2022/05/12 10:00:36;;;;;;;2.23;1.00;;;17.40;99.90;;;;;;5043632;28;20380;-77
2022/05/12 10:09:05;;;;;;;1.20;0.93;;;17.50;99.90;;;;;;5050704;28;20254;-77
2022/05/12 10:11:36;;;;;;;2.47;0.97;;;17.40;99.90;;;;;;5051583;28;20238;-76
2022/05/12 10:14:05;;;;;;;1.87;0.80;;;17.50;99.90;;;;;;5051182;28;20242;-77
2022/05/12 10:16:34;;;;;;;1.17;0.80;;;17.60;99.90;;;;;;5051237;28;20212;-76
2022/05/12 10:19:05;;;;;;;1.10;1.00;;;17.90;99.90;;;;;;5051102;28;20282;-77
2022/05/12 10:21:39;;;;;;;2.10;0.90;;;18.00;99.70;;;;;;5051184;28;20216;-76
2022/05/12 10:24:18;;;;;;;1.00;0.80;;;17.70;99.90;;;;;;5050357;28;20733;-76
2022/05/12 10:26:50;;;;;;;1.50;0.87;;;17.70;99.90;;;;;;5050561;28;20723;-76
2022/05/12 10:29:30;;;;;;;1.30;0.87;;;17.60;99.90;;;;;;5050800;28;20593;-76
2022/05/12 10:32:05;;;;;;;2.40;1.00;;;17.50;99.90;;;;;;5050919;28;20299;-76
2022/05/12 10:34:49;;;;;;;2.60;1.10;;;17.50;99.90;;;;;;5050601;28;20658;-76
2022/05/12 10:37:33;;;;;;;0.83;0.70;;;17.80;99.90;;;;;;5030533;28;20212;-77
2022/05/12 10:40:11;;;;;;;0.80;0.80;;;18.00;99.90;;;;;;5030523;28;20193;-76
2022/05/12 10:42:53;;;;;;;1.03;0.93;;;17.80;99.90;;;;;;5037641;28;20659;-76
2022/05/12 10:45:24;;;;;;;1.03;0.60;;;17.90;99.80;;;;;;5047472;28;20702;-76
2022/05/12 10:48:20;;;;;;;0.80;0.67;;;18.00;99.90;;;;;;5050612;28;20246;-76
2022/05/12 10:50:55;;;;;;;1.33;0.90;;;18.00;98.50;;;;;;5050123;28;20228;-77
2022/05/12 10:53:32;;;;;;;2.37;0.87;;;18.00;98.30;;;;;;5050120;28;20200;-76
2022/05/12 10:56:10;;;;;;;3.03;1.20;;;18.20;99.50;;;;;;5050368;28;20192;-76
2022/05/12 10:58:44;;;;;;;0.80;0.80;;;18.30;99.50;;;;;;5050487;28;20192;-76
2022/05/12 11:01:17;;;;;;;2.03;0.90;;;17.80;99.70;;;;;;5050034;28;20203;-76
2022/05/12 11:03:53;;;;;;;1.97;1.00;;;17.60;99.70;;;;;;5046348;28;20205;-76
2022/05/12 11:06:23;;;;;;;3.17;1.13;;;17.80;99.80;;;;;;5030678;28;20276;-76
2022/05/12 11:08:55;;;;;;;1.70;1.07;;;18.00;99.70;;;;;;5029678;28;20667;-76
2022/05/12 11:11:26;;;;;;;2.60;1.00;;;17.90;99.30;;;;;;5030263;28;20315;-76
2022/05/12 11:13:59;;;;;;;1.47;0.90;;;18.00;99.60;;;;;;5035500;28;20204;-77
2022/05/12 11:16:31;;;;;;;1.20;1.07;;;18.30;99.90;;;;;;5049304;28;20631;-77
2022/05/12 11:19:06;;;;;;;2.17;1.30;;;18.30;98.80;;;;;;5049441;28;20232;-77
2022/05/12 11:21:38;;;;;;;1.53;1.20;;;18.10;99.00;;;;;;5050112;28;20203;-77
2022/05/12 11:24:14;;;;;;;1.07;0.80;;;18.50;98.80;;;;;;5049601;28;20254;-76
2022/05/12 11:26:51;;;;;;;1.47;0.73;;;18.40;98.60;;;;;;5050035;28;20192;-76
2022/05/12 11:29:48;;;;;;;1.13;1.03;;;18.50;98.50;;;;;;5049833;28;20254;-77
2022/05/12 11:32:48;;;;;;;1.20;0.87;;;18.40;96.90;;;;;;5046390;28;20209;-77
2022/05/12 11:35:20;;;;;;;1.47;0.87;;;18.60;98.00;;;;;;5030059;28;20209;-76
2022/05/12 11:38:00;;;;;;;0.43;0.43;;;18.70;97.30;;;;;;5030154;28;20201;-77
2022/05/12 11:40:50;;;;;;;1.00;0.90;;;18.90;97.60;;;;;;5048394;28;20242;-77
2022/05/12 11:46:43;;;;;;;2.43;1.00;;;18.80;96.70;;;;;;5049413;28;20273;-76
2022/05/12 11:49:27;;;;;;;1.30;0.93;;;18.80;97.30;;;;;;5048452;28;20295;-76
2022/05/12 11:52:03;;;;;;;3.07;1.00;;;18.90;96.90;;;;;;5048670;28;20228;-76
2022/05/12 11:54:33;;;;;;;0.97;0.93;;;18.90;97.80;;;;;;5049209;28;20216;-76
2022/05/12 11:57:03;;;;;;;1.03;0.70;;;19.20;97.00;;;;;;5048710;28;20733;-77
2022/05/12 11:59:48;;;;;;;1.30;1.00;;;18.80;96.50;;;;;;5048636;28;20578;-76
2022/05/12 12:02:40;;;;;;;1.90;0.77;;;18.90;96.50;;;;;;5045289;28;20200;-76
2022/05/12 12:05:09;;;;;;;1.00;0.70;;;19.10;96.50;;;;;;5048899;28;20648;-76
2022/05/12 12:08:05;;;;;;;1.20;0.93;;;19.20;96.20;;;;;;5049289;28;20210;-76
2022/05/12 12:10:35;;;;;;;1.77;1.17;;;18.60;96.00;;;;;;5049234;28;20242;-76
2022/05/12 12:13:06;;;;;;;1.17;0.90;;;18.50;96.10;;;;;;5048822;28;20208;-76
2022/05/12 12:16:05;;;;;;;1.23;1.13;;;18.70;96.00;;;;;;5048912;28;20219;-76
2022/05/12 12:19:05;;;;;;;0.90;0.73;;;19.20;96.10;;;;;;5048683;28;20231;-77
2022/05/12 12:22:18;;;;;;;1.00;0.70;;;19.70;96.40;;;;;;5049109;28;20212;-76
2022/05/12 12:25:02;;;;;;;0.80;0.70;;;19.80;95.50;;;;;;5028686;28;20262;-76
2022/05/12 12:28:04;;;;;;;1.43;0.70;;;19.30;95.20;;;;;;5028478;28;20211;-77
2022/05/12 12:30:54;;;;;;;1.33;0.83;;;19.30;95.80;;;;;;5028300;28;20254;-77
2022/05/12 12:33:38;;;;;;;1.77;0.60;;;19.50;96.10;;;;;;5028653;28;20573;-77
2022/05/12 12:36:29;;;;;;;1.10;0.90;;;19.90;96.40;;;;;;5042001;28;20200;-77
2022/05/12 12:39:12;;;;;;;0.73;0.67;;;20.30;95.40;;;;;;5047583;28;20261;-77
2022/05/12 12:41:43;;;;;;;1.63;0.77;;;20.50;93.40;;;;;;5048373;28;20261;-77
2022/05/12 12:44:17;;;;;;;4.13;0.97;;;20.40;92.90;;;;;;5048495;28;20295;-77
2022/05/12 12:47:14;;;;;;;2.47;0.93;;;20.50;92.90;;;;;;5048129;28;20589;-77
2022/05/12 12:50:06;;;;;;;1.27;0.60;;;20.70;92.60;;;;;;5048224;28;20208;-77
2022/05/12 12:52:40;;;;;;;0.80;0.60;;;21.20;92.80;;;;;;5045222;28;20208;-77
2022/05/12 12:58:02;;;;;;;0.93;0.87;;;20.70;92.10;;;;;;5047739;28;20215;-77
2022/05/12 13:00:33;;;;;;;1.10;0.70;;;20.70;92.50;;;;;;5047832;28;20211;-77
2022/05/12 13:03:02;;;;;;;0.93;0.73;;;20.60;92.10;;;;;;5047817;28;20197;-77
2022/05/12 13:05:31;;;;;;;1.30;0.70;;;20.60;92.70;;;;;;5047974;28;20254;-77
2022/05/12 13:08:00;;;;;;;1.63;0.70;;;20.90;92.10;;;;;;5047714;28;20212;-77
2022/05/12 13:10:28;;;;;;;1.53;0.70;;;21.00;90.30;;;;;;5047315;28;20651;-77
2022/05/12 13:13:02;;;;;;;2.17;0.90;;;21.30;90.80;;;;;;5047319;28;20662;-77
2022/05/12 13:15:32;;;;;;;1.60;0.60;;;21.50;90.90;;;;;;5047649;28;20224;-77
2022/05/12 13:18:01;;;;;;;2.00;0.97;;;21.00;91.00;;;;;;5047352;28;20235;-77
2022/05/12 13:20:36;;;;;;;0.73;0.50;;;20.30;91.90;;;;;;5047561;28;20208;-77
2022/05/12 13:23:05;;;;;;;1.50;0.63;;;20.20;92.00;;;;;;5040700;28;20915;-77
2022/05/12 13:25:35;;;;;;;1.00;0.77;;;20.20;92.60;;;;;;5036260;28;20213;-77
2022/05/12 13:28:05;;;;;;;1.83;0.60;;;20.50;92.90;;;;;;5027956;28;20213;-77
2022/05/12 13:30:38;;;;;;;0.70;0.70;;;20.70;92.10;;;;;;5027542;28;20193;-77